| time (UTC) | temp F | wind direction | speed MPH | gust MPH | rain 1hr in | rain 24hr in | rain mn in | humidity % | barometer mb |
| 20260508164005 | 60 | 233 | 4.0 | 10.0 | 0.00 | 0.00 | 0.00 | 39 | 1018.5 |
| 20260508163505 | 60 | 209 | 2.0 | 9.0 | 0.00 | 0.00 | 0.00 | 41 | 1018.4 |
| 20260508163005 | 60 | 263 | 2.0 | 6.0 | 0.00 | 0.00 | 0.00 | 40 | 1018.4 |
| 20260508162505 | 60 | 248 | 3.0 | 9.0 | 0.00 | 0.00 | 0.00 | 40 | 1018.4 |
| 20260508162005 | 60 | 211 | 2.0 | 10.0 | 0.00 | 0.00 | 0.00 | 40 | 1018.5 |
| 20260508161504 | 61 | 248 | 2.0 | 10.0 | 0.00 | 0.00 | 0.00 | 39 | 1018.4 |
| 20260508161005 | 61 | 226 | 3.0 | 10.0 | 0.00 | 0.00 | 0.00 | 39 | 1018.5 |
| 20260508160505 | 61 | 217 | 4.0 | 8.0 | 0.00 | 0.00 | 0.00 | 39 | 1018.4 |
| 20260508160007 | 61 | 205 | 3.0 | 8.0 | 0.00 | 0.00 | 0.00 | 40 | 1018.4 |
| 20260508155505 | 62 | 272 | 1.0 | 8.0 | 0.00 | 0.00 | 0.00 | 39 | 1018.4 |
| 20260508155005 | 62 | 227 | 4.0 | 8.0 | 0.00 | 0.00 | 0.00 | 38 | 1018.4 |
| 20260508154005 | 62 | 218 | 4.0 | 10.0 | 0.00 | 0.00 | 0.00 | 39 | 1018.5 |
| 20260508153505 | 62 | 267 | 3.0 | 10.0 | 0.00 | 0.00 | 0.00 | 38 | 1018.5 |
| 20260508153006 | 62 | 216 | 3.0 | 9.0 | 0.00 | 0.00 | 0.00 | 38 | 1018.5 |
| 20260508152505 | 62 | 201 | 4.0 | 9.0 | 0.00 | 0.00 | 0.00 | 38 | 1018.5 |
| 20260508152005 | 62 | 243 | 3.0 | 8.0 | 0.00 | 0.00 | 0.00 | 38 | 1018.5 |
| 20260508151506 | 63 | 232 | 4.0 | 8.0 | 0.00 | 0.00 | 0.00 | 38 | 1018.6 |
| 20260508151005 | 63 | 226 | 4.0 | 8.0 | 0.00 | 0.00 | 0.00 | 38 | 1018.6 |
| 20260508150505 | 63 | 242 | 3.0 | 10.0 | 0.00 | 0.00 | 0.00 | 38 | 1018.5 |
| 20260508150006 | 63 | 199 | 5.0 | 10.0 | 0.00 | 0.00 | 0.00 | 37 | 1018.6 |
| 20260508145505 | 63 | 249 | 5.0 | 9.0 | 0.00 | 0.00 | 0.00 | 38 | 1018.7 |
| 20260508145005 | 63 | 227 | 3.0 | 12.0 | 0.00 | 0.00 | 0.00 | 38 | 1018.6 |
| 20260508144505 | 63 | 232 | 3.0 | 12.0 | 0.00 | 0.00 | 0.00 | 38 | 1018.6 |
| 20260508144005 | 63 | 238 | 2.0 | 10.0 | 0.00 | 0.00 | 0.00 | 38 | 1018.6 |
| 20260508143505 | 63 | 220 | 5.0 | 13.0 | 0.00 | 0.00 | 0.00 | 39 | 1018.5 |
| 20260508143005 | 63 | 249 | 4.0 | 13.0 | 0.00 | 0.00 | 0.00 | 37 | 1018.6 |
| 20260508142505 | 63 | 249 | 4.0 | 8.0 | 0.00 | 0.00 | 0.00 | 38 | 1018.6 |
| 20260508142005 | 63 | 231 | 4.0 | 8.0 | 0.00 | 0.00 | 0.00 | 39 | 1018.6 |
| 20260508141506 | 63 | 188 | 4.0 | 10.0 | 0.00 | 0.00 | 0.00 | 39 | 1018.6 |
| 20260508141005 | 63 | 211 | 5.0 | 10.0 | 0.00 | 0.00 | 0.00 | 37 | 1018.6 |
| 20260508140504 | 64 | 201 | 5.0 | 14.0 | 0.00 | 0.00 | 0.00 | 38 | 1018.7 |
| 20260508140005 | 64 | 218 | 4.0 | 14.0 | 0.00 | 0.00 | 0.00 | 39 | 1018.7 |
| 20260508135505 | 64 | 192 | 4.0 | 14.0 | 0.00 | 0.00 | 0.00 | 41 | 1018.6 |
| 20260508135005 | 64 | 227 | 3.0 | 8.0 | 0.00 | 0.00 | 0.00 | 43 | 1018.7 |
| 20260508134506 | 63 | 269 | 2.0 | 7.0 | 0.00 | 0.00 | 0.00 | 41 | 1018.8 |
| 20260508134005 | 63 | 272 | 3.0 | 9.0 | 0.00 | 0.00 | 0.00 | 41 | 1018.8 |
| 20260508133505 | 63 | 229 | 4.0 | 10.0 | 0.00 | 0.00 | 0.00 | 42 | 1018.8 |
| 20260508132504 | 63 | 200 | 6.0 | 12.0 | 0.00 | 0.00 | 0.00 | 39 | 1018.8 |
| 20260508131505 | 63 | 191 | 3.0 | 12.0 | 0.00 | 0.00 | 0.00 | 43 | 1018.8 |
| 20260508130504 | 63 | 206 | 6.0 | 12.0 | 0.00 | 0.00 | 0.00 | 40 | 1018.9 |
| 20260508130007 | 63 | 247 | 3.0 | 7.0 | 0.00 | 0.00 | 0.00 | 42 | 1018.9 |
| 20260508125504 | 63 | 255 | 3.0 | 8.0 | 0.00 | 0.00 | 0.00 | 41 | 1018.9 |
| 20260508124506 | 63 | 214 | 3.0 | 10.0 | 0.00 | 0.00 | 0.00 | 42 | 1018.8 |
| 20260508124004 | 62 | 253 | 3.0 | 10.0 | 0.00 | 0.00 | 0.00 | 42 | 1018.8 |
| 20260508123505 | 62 | 269 | 2.0 | 12.0 | 0.00 | 0.00 | 0.00 | 41 | 1018.8 |
| 20260508123007 | 62 | 204 | 3.0 | 12.0 | 0.00 | 0.00 | 0.00 | 41 | 1018.9 |
| 20260508122505 | 62 | 246 | 4.0 | 9.0 | 0.00 | 0.00 | 0.00 | 43 | 1018.9 |
| 20260508122006 | 62 | 214 | 3.0 | 10.0 | 0.00 | 0.00 | 0.00 | 41 | 1018.9 |
| 20260508121506 | 62 | 179 | 5.0 | 10.0 | 0.00 | 0.00 | 0.00 | 43 | 1018.8 |
| 20260508120505 | 62 | 200 | 4.0 | 8.0 | 0.00 | 0.00 | 0.00 | 42 | 1018.8 |
| 20260508120005 | 62 | 215 | 2.0 | 7.0 | 0.00 | 0.00 | 0.00 | 42 | 1018.8 |
| 20260508115005 | 63 | 220 | 5.0 | 10.0 | 0.00 | 0.00 | 0.00 | 41 | 1018.9 |
| 20260508114505 | 63 | 250 | 2.0 | 15.0 | 0.00 | 0.00 | 0.00 | 40 | 1018.8 |
| 20260508114006 | 64 | 203 | 7.0 | 15.0 | 0.00 | 0.00 | 0.00 | 39 | 1018.8 |
| 20260508113506 | 64 | 192 | 6.0 | 12.0 | 0.00 | 0.00 | 0.00 | 40 | 1018.8 |
| 20260508113006 | 63 | 281 | 3.0 | 12.0 | 0.00 | 0.00 | 0.00 | 40 | 1018.7 |
| 20260508112505 | 63 | 226 | 4.0 | 12.0 | 0.00 | 0.00 | 0.00 | 40 | 1018.8 |
| 20260508112006 | 63 | 171 | 7.0 | 12.0 | 0.00 | 0.00 | 0.00 | 40 | 1018.8 |
| 20260508111508 | 63 | 225 | 3.0 | 10.0 | 0.00 | 0.00 | 0.00 | 39 | 1018.7 |
| 20260508110006 | 62 | 208 | 5.0 | 10.0 | 0.00 | 0.00 | 0.00 | 40 | 1018.7 |
| 20260508105005 | 62 | 258 | 2.0 | 8.0 | 0.00 | 0.00 | 0.00 | 41 | 1018.6 |
| 20260508104506 | 61 | 206 | 3.0 | 8.0 | 0.00 | 0.00 | 0.00 | 43 | 1018.7 |
| 20260508104005 | 61 | 215 | 2.0 | 9.0 | 0.00 | 0.00 | 0.00 | 43 | 1018.7 |
| 20260508103504 | 61 | 218 | 3.0 | 9.0 | 0.00 | 0.00 | 0.00 | 41 | 1018.7 |
| 20260508103006 | 61 | 209 | 3.0 | 10.0 | 0.00 | 0.00 | 0.00 | 43 | 1018.7 |
| 20260508102504 | 61 | 200 | 6.0 | 10.0 | 0.00 | 0.00 | 0.00 | 43 | 1018.7 |
| 20260508102005 | 61 | 217 | 4.0 | 10.0 | 0.00 | 0.00 | 0.00 | 44 | 1018.7 |
| 20260508101005 | 61 | 204 | 5.0 | 12.0 | 0.00 | 0.00 | 0.00 | 43 | 1018.7 |
| 20260508100505 | 61 | 216 | 3.0 | 7.0 | 0.00 | 0.00 | 0.00 | 43 | 1018.7 |
| 20260508100006 | 61 | 290 | 3.0 | 10.0 | 0.00 | 0.00 | 0.00 | 44 | 1018.7 |
| 20260508095004 | 61 | 181 | 5.0 | 12.0 | 0.00 | 0.00 | 0.00 | 44 | 1018.7 |
| 20260508094505 | 61 | 171 | 3.0 | 12.0 | 0.00 | 0.00 | 0.00 | 44 | 1018.7 |
| 20260508094004 | 60 | 201 | 4.0 | 13.0 | 0.00 | 0.00 | 0.00 | 46 | 1018.7 |
| 20260508093505 | 60 | 151 | 4.0 | 13.0 | 0.00 | 0.00 | 0.00 | 45 | 1018.7 |
| 20260508093005 | 59 | 182 | 4.0 | 13.0 | 0.00 | 0.00 | 0.00 | 46 | 1018.7 |
| 20260508092504 | 59 | 154 | 6.0 | 12.0 | 0.00 | 0.00 | 0.00 | 43 | 1018.7 |
| 20260508092004 | 59 | 174 | 3.0 | 9.0 | 0.00 | 0.00 | 0.00 | 43 | 1018.7 |
| 20260508091505 | 59 | 182 | 3.0 | 10.0 | 0.00 | 0.00 | 0.00 | 43 | 1018.8 |
| 20260508091004 | 59 | 158 | 5.0 | 10.0 | 0.00 | 0.00 | 0.00 | 42 | 1018.8 |
| 20260508090504 | 58 | 137 | 3.0 | 8.0 | 0.00 | 0.00 | 0.00 | 44 | 1018.8 |
| 20260508090005 | 58 | 159 | 1.0 | 8.0 | 0.00 | 0.00 | 0.00 | 45 | 1018.8 |
| 20260508085505 | 57 | 195 | 3.0 | 7.0 | 0.00 | 0.00 | 0.00 | 44 | 1018.8 |
| 20260508085005 | 57 | 137 | 2.0 | 8.0 | 0.00 | 0.00 | 0.00 | 43 | 1018.8 |
| 20260508084505 | 57 | 149 | 3.0 | 8.0 | 0.00 | 0.00 | 0.00 | 42 | 1018.8 |
| 20260508083505 | 57 | 204 | 2.0 | 8.0 | 0.00 | 0.00 | 0.00 | 43 | 1018.8 |
| 20260508083005 | 57 | 210 | 4.0 | 8.0 | 0.00 | 0.00 | 0.00 | 41 | 1018.8 |
| 20260508082506 | 57 | 208 | 2.0 | 6.0 | 0.00 | 0.00 | 0.00 | 42 | 1018.7 |
| 20260508082005 | 56 | 211 | 3.0 | 6.0 | 0.00 | 0.00 | 0.00 | 40 | 1018.7 |
| 20260508081504 | 56 | 169 | 3.0 | 6.0 | 0.00 | 0.00 | 0.00 | 40 | 1018.6 |
| 20260508081005 | 56 | 173 | 3.0 | 9.0 | 0.00 | 0.00 | 0.00 | 39 | 1018.6 |
| 20260508075506 | 55 | 131 | 3.0 | 7.0 | 0.00 | 0.00 | 0.00 | 41 | 1018.7 |
| 20260508075005 | 55 | 179 | 2.0 | 6.0 | 0.00 | 0.00 | 0.00 | 41 | 1018.7 |
| 20260508074505 | 55 | 223 | 2.0 | 3.0 | 0.00 | 0.00 | 0.00 | 42 | 1018.7 |
| 20260508074006 | 54 | 189 | 2.0 | 8.0 | 0.00 | 0.00 | 0.00 | 43 | 1018.7 |
| 20260508073504 | 54 | 177 | 2.0 | 8.0 | 0.00 | 0.00 | 0.00 | 45 | 1018.7 |
| 20260508073006 | 54 | 182 | 3.0 | 6.0 | 0.00 | 0.00 | 0.00 | 45 | 1018.7 |
| 20260508072506 | 54 | 178 | 2.0 | 7.0 | 0.00 | 0.00 | 0.00 | 48 | 1018.7 |
| 20260508072005 | 54 | 138 | 3.0 | 7.0 | 0.00 | 0.00 | 0.00 | 49 | 1018.6 |
| 20260508071505 | 53 | 167 | 3.0 | 5.0 | 0.00 | 0.00 | 0.00 | 53 | 1018.6 |
| 20260508070505 | 53 | 147 | 2.0 | 5.0 | 0.00 | 0.00 | 0.00 | 55 | 1018.4 |
| 20260508065505 | 52 | 181 | 2.0 | 5.0 | 0.00 | 0.00 | 0.00 | 55 | 1018.4 |
| 20260508065005 | 52 | 187 | 1.0 | 3.0 | 0.00 | 0.00 | 0.00 | 56 | 1018.4 |
| 20260508064504 | 51 | 135 | 1.0 | 6.0 | 0.00 | 0.00 | 0.00 | 57 | 1018.4 |
| 20260508064006 | 51 | 154 | 1.0 | 6.0 | 0.00 | 0.00 | 0.00 | 57 | 1018.4 |
| 20260508063504 | 50 | 142 | 1.0 | 5.0 | 0.00 | 0.00 | 0.00 | 58 | 1018.3 |
| 20260508063005 | 50 | 176 | 3.0 | 5.0 | 0.00 | 0.00 | 0.00 | 64 | 1018.4 |
| 20260508062505 | 49 | 172 | 1.0 | 3.0 | 0.00 | 0.00 | 0.00 | 64 | 1018.3 |
| 20260508061505 | 48 | 119 | 0.0 | 5.0 | 0.00 | 0.00 | 0.00 | 68 | 1018.2 |
| 20260508061004 | 47 | 116 | 1.0 | 5.0 | 0.00 | 0.00 | 0.00 | 69 | 1018.1 |
| 20260508060505 | 47 | 132 | 1.0 | 5.0 | 0.00 | 0.00 | 0.00 | 71 | 1018.1 |
| 20260508055505 | 45 | 182 | 1.0 | 3.0 | 0.00 | 0.00 | 0.00 | 73 | 1018.1 |
| 20260508055005 | 44 | 191 | 1.0 | 3.0 | 0.00 | 0.00 | 0.00 | 75 | 1018.1 |
| 20260508054504 | 44 | 177 | 1.0 | 3.0 | 0.00 | 0.00 | 0.00 | 76 | 1018.0 |
| 20260508054006 | 43 | 158 | 0.0 | 2.0 | 0.00 | 0.00 | 0.00 | 77 | 1018.0 |
| 20260508053505 | 42 | 158 | 1.0 | 2.0 | 0.00 | 0.00 | 0.00 | 78 | 1017.9 |
| 20260508053006 | 41 | 154 | 1.0 | 2.0 | 0.00 | 0.00 | 0.00 | 79 | 1017.9 |
| 20260508052505 | 40 | 156 | 1.0 | 2.0 | 0.00 | 0.00 | 0.00 | 80 | 1017.9 |
| 20260508052005 | 39 | 155 | 1.0 | 2.0 | 0.00 | 0.00 | 0.00 | 80 | 1017.9 |
| 20260508051505 | 38 | 130 | 0.0 | 0.0 | 0.00 | 0.00 | 0.00 | 80 | 1017.8 |
| 20260508051005 | 37 | 127 | 0.0 | 0.0 | 0.00 | 0.00 | 0.00 | 81 | 1017.7 |
| 20260508050505 | 37 | 128 | 0.0 | 1.0 | 0.00 | 0.00 | 0.00 | 82 | 1017.7 |
| 20260508045505 | 36 | 126 | 1.0 | 2.0 | 0.00 | 0.00 | 0.00 | 83 | 1017.6 |
| 20260508045005 | 35 | 128 | 0.0 | 2.0 | 0.00 | 0.00 | 0.00 | 84 | 1017.7 |
| 20260508044506 | 34 | 174 | 0.0 | 0.0 | 0.00 | 0.00 | 0.00 | 83 | 1017.6 |
| 20260508044004 | 34 | 176 | 0.0 | 1.0 | 0.00 | 0.00 | 0.00 | 83 | 1017.6 |
| 20260508043504 | 34 | 174 | 0.0 | 1.0 | 0.00 | 0.00 | 0.00 | 83 | 1017.5 |
| 20260508042505 | 33 | 174 | 0.0 | 1.0 | 0.00 | 0.00 | 0.00 | 81 | 1017.4 |
| 20260508042005 | 33 | 177 | 0.0 | 1.0 | 0.00 | 0.00 | 0.00 | 79 | 1017.4 |
| 20260508041505 | 33 | 174 | 0.0 | 1.0 | 0.00 | 0.00 | 0.00 | 79 | 1017.4 |
| 20260508041006 | 33 | 121 | 0.0 | 0.0 | 0.00 | 0.00 | 0.00 | 79 | 1017.4 |
| 20260508040504 | 33 | 122 | 0.0 | 0.0 | 0.00 | 0.00 | 0.00 | 79 | 1017.4 |
| 20260508040005 | 33 | 120 | 0.0 | 0.0 | 0.00 | 0.00 | 0.00 | 79 | 1017.4 |
| 20260508035505 | 33 | 121 | 0.0 | 0.0 | 0.00 | 0.00 | 0.00 | 79 | 1017.4 |
| 20260508035005 | 33 | 121 | 0.0 | 0.0 | 0.00 | 0.00 | 0.00 | 79 | 1017.3 |
| 20260508034504 | 34 | 121 | 0.0 | 0.0 | 0.00 | 0.00 | 0.00 | 79 | 1017.3 |
| 20260508034006 | 34 | 121 | 0.0 | 0.0 | 0.00 | 0.00 | 0.00 | 79 | 1017.2 |
| 20260508033504 | 34 | 122 | 0.0 | 2.0 | 0.00 | 0.00 | 0.00 | 79 | 1017.2 |
| 20260508033005 | 34 | 121 | 0.0 | 2.0 | 0.00 | 0.00 | 0.00 | 80 | 1017.2 |
| 20260508032504 | 34 | 122 | 1.0 | 2.0 | 0.00 | 0.00 | 0.00 | 80 | 1017.2 |
| 20260508031505 | 34 | 120 | 1.0 | 2.0 | 0.00 | 0.00 | 0.00 | 80 | 1017.1 |
| 20260508031005 | 34 | 122 | 1.0 | 2.0 | 0.00 | 0.00 | 0.00 | 81 | 1017.1 |
| 20260508030504 | 33 | 122 | 1.0 | 2.0 | 0.00 | 0.00 | 0.00 | 81 | 1017.1 |
| 20260508030005 | 33 | 122 | 1.0 | 2.0 | 0.00 | 0.00 | 0.00 | 81 | 1017.1 |
| 20260508025506 | 33 | 122 | 1.0 | 3.0 | 0.00 | 0.00 | 0.00 | 81 | 1017.1 |
| 20260508025005 | 33 | 123 | 1.0 | 3.0 | 0.00 | 0.00 | 0.00 | 80 | 1017.2 |
| 20260508024505 | 33 | 122 | 1.0 | 2.0 | 0.00 | 0.00 | 0.00 | 80 | 1017.2 |
| 20260508024005 | 33 | 122 | 1.0 | 2.0 | 0.00 | 0.00 | 0.00 | 80 | 1017.2 |
| 20260508023505 | 33 | 122 | 1.0 | 2.0 | 0.00 | 0.00 | 0.00 | 79 | 1017.2 |
| 20260508023005 | 33 | 122 | 1.0 | 2.0 | 0.00 | 0.00 | 0.00 | 79 | 1017.1 |
| 20260508022005 | 33 | 121 | 1.0 | 2.0 | 0.00 | 0.00 | 0.00 | 79 | 1016.9 |
| 20260508021505 | 33 | 123 | 1.0 | 2.0 | 0.00 | 0.00 | 0.00 | 79 | 1016.9 |
| 20260508021006 | 33 | 123 | 1.0 | 2.0 | 0.00 | 0.00 | 0.00 | 79 | 1016.9 |
| 20260508020505 | 33 | 123 | 1.0 | 2.0 | 0.00 | 0.00 | 0.00 | 79 | 1016.9 |
| 20260508020005 | 33 | 121 | 1.0 | 2.0 | 0.00 | 0.00 | 0.00 | 79 | 1016.8 |
| 20260508015505 | 34 | 123 | 1.0 | 3.0 | 0.00 | 0.00 | 0.00 | 78 | 1016.8 |
| 20260508014504 | 34 | 121 | 1.0 | 2.0 | 0.00 | 0.00 | 0.00 | 76 | 1016.8 |
| 20260508014004 | 34 | 122 | 0.0 | 0.0 | 0.00 | 0.00 | 0.00 | 75 | 1016.8 |
| 20260508013506 | 35 | 123 | 0.0 | 0.0 | 0.00 | 0.00 | 0.00 | 75 | 1016.8 |
| 20260508012505 | 35 | 122 | 0.0 | 0.0 | 0.00 | 0.00 | 0.00 | 73 | 1016.6 |
| 20260508012005 | 35 | 122 | 0.0 | 0.0 | 0.00 | 0.00 | 0.00 | 73 | 1016.6 |
| 20260508011504 | 36 | 123 | 0.0 | 0.0 | 0.00 | 0.00 | 0.00 | 73 | 1016.5 |
| 20260508011006 | 36 | 124 | 0.0 | 0.0 | 0.00 | 0.00 | 0.00 | 74 | 1016.5 |
| 20260508010504 | 36 | 122 | 0.0 | 0.0 | 0.00 | 0.00 | 0.00 | 74 | 1016.5 |
| 20260508010004 | 36 | 122 | 0.0 | 0.0 | 0.00 | 0.00 | 0.00 | 74 | 1016.4 |
| 20260508005506 | 36 | 123 | 0.0 | 0.0 | 0.00 | 0.00 | 0.00 | 74 | 1016.3 |
| 20260508005004 | 36 | 122 | 0.0 | 2.0 | 0.00 | 0.00 | 0.00 | 74 | 1016.3 |
| 20260508004505 | 36 | 123 | 0.0 | 2.0 | 0.00 | 0.00 | 0.00 | 74 | 1016.3 |
| 20260508004006 | 36 | 123 | 1.0 | 2.0 | 0.00 | 0.00 | 0.00 | 75 | 1016.3 |
| 20260508003504 | 36 | 124 | 1.0 | 2.0 | 0.00 | 0.00 | 0.00 | 74 | 1016.2 |
| 20260508002505 | 37 | 123 | 1.0 | 3.0 | 0.00 | 0.00 | 0.00 | 74 | 1016.2 |
| 20260508002004 | 37 | 130 | 2.0 | 3.0 | 0.00 | 0.00 | 0.00 | 74 | 1016.1 |
| 20260508001505 | 37 | 128 | 2.0 | 2.0 | 0.00 | 0.00 | 0.00 | 74 | 1016.0 |
| 20260508000505 | 37 | 129 | 1.0 | 2.0 | 0.00 | 0.00 | 0.00 | 73 | 1016.0 |
| 20260508000006 | 37 | 128 | 1.0 | 2.0 | 0.00 | 0.08 | 0.00 | 73 | 1016.1 |
| 20260507235005 | 37 | 128 | 1.0 | 2.0 | 0.00 | 0.32 | 0.00 | 73 | 1016.1 |
| 20260507234506 | 38 | 129 | 1.0 | 2.0 | 0.00 | 0.42 | 0.00 | 73 | 1016.0 |
| 20260507234006 | 38 | 129 | 1.0 | 2.0 | 0.00 | 0.54 | 0.00 | 72 | 1015.9 |
| 20260507233504 | 38 | 130 | 1.0 | 2.0 | 0.00 | 0.66 | 0.00 | 72 | 1015.8 |
| 20260507232506 | 38 | 130 | 1.0 | 2.0 | 0.00 | 0.90 | 0.00 | 71 | 1015.8 |
| 20260507232005 | 38 | 130 | 1.0 | 2.0 | 0.00 | 1.02 | 0.00 | 71 | 1015.8 |
| 20260507231504 | 38 | 128 | 1.0 | 2.0 | 0.00 | 1.14 | 0.00 | 70 | 1015.8 |
| 20260507231006 | 38 | 128 | 1.0 | 2.0 | 0.00 | 1.24 | 0.00 | 70 | 1015.8 |
| 20260507230005 | 39 | 130 | 0.0 | 0.0 | 0.00 | 1.48 | 0.00 | 68 | 1015.7 |
| 20260507225505 | 39 | 128 | 0.0 | 0.0 | 0.00 | 1.60 | 0.00 | 67 | 1015.7 |
| 20260507225005 | 39 | 129 | 0.0 | 0.0 | 0.00 | 1.72 | 0.00 | 67 | 1015.7 |
| 20260507224505 | 39 | 129 | 0.0 | 1.0 | 0.00 | 1.84 | 0.00 | 67 | 1015.6 |
| 20260507224004 | 39 | 130 | 0.0 | 2.0 | 0.00 | 1.96 | 0.00 | 66 | 1015.6 |
| 20260507223504 | 39 | 129 | 1.0 | 2.0 | 0.00 | 2.06 | 0.00 | 66 | 1015.6 |
| 20260507223005 | 39 | 129 | 1.0 | 2.0 | 0.00 | 2.18 | 0.00 | 65 | 1015.6 |
| 20260507222504 | 40 | 129 | 1.0 | 2.0 | 0.00 | 2.30 | 0.00 | 65 | 1015.6 |
| 20260507222004 | 40 | 131 | 1.0 | 3.0 | 0.00 | 2.42 | 0.00 | 64 | 1015.5 |
| 20260507221505 | 40 | 129 | 2.0 | 3.0 | 0.00 | 2.54 | 0.00 | 63 | 1015.5 |
| 20260507221006 | 40 | 178 | 1.0 | 2.0 | 0.00 | 2.66 | 0.00 | 62 | 1015.5 |
| 20260507220504 | 40 | 177 | 1.0 | 2.0 | 0.00 | 2.78 | 0.00 | 62 | 1015.4 |
| 20260507220005 | 41 | 178 | 1.0 | 2.0 | 0.00 | 2.88 | 0.00 | 62 | 1015.4 |
| 20260507215506 | 41 | 180 | 1.0 | 2.0 | 0.00 | 3.00 | 0.00 | 62 | 1015.4 |
| 20260507215005 | 41 | 180 | 1.0 | 2.0 | 0.00 | 3.12 | 0.00 | 61 | 1015.3 |
| 20260507214504 | 41 | 178 | 1.0 | 2.0 | 0.00 | 3.24 | 0.00 | 60 | 1015.3 |
| 20260507214004 | 42 | 179 | 1.0 | 3.0 | 0.00 | 3.36 | 0.00 | 60 | 1015.2 |
| 20260507213505 | 42 | 179 | 1.0 | 3.0 | 0.00 | 3.48 | 0.00 | 58 | 1015.1 |
| 20260507213005 | 42 | 222 | 0.0 | 2.0 | 0.00 | 3.58 | 0.00 | 57 | 1015.1 |
| 20260507212505 | 42 | 222 | 0.0 | 2.0 | 0.00 | 3.70 | 0.00 | 57 | 1015.1 |
| 20260507210504 | 43 | 222 | 0.0 | 2.0 | 0.00 | 4.18 | 0.00 | 55 | 1014.8 |
| 20260507210005 | 44 | 221 | 1.0 | 2.0 | 0.00 | 4.30 | 0.00 | 55 | 1014.8 |
| 20260507205505 | 44 | 225 | 0.0 | 2.0 | 0.00 | 4.40 | 0.00 | 54 | 1014.8 |
| 20260507205005 | 44 | 222 | 0.0 | 1.0 | 0.00 | 4.52 | 0.00 | 53 | 1014.8 |
| 20260507204506 | 45 | 224 | 0.0 | 1.0 | 0.00 | 4.64 | 0.00 | 52 | 1014.8 |
| 20260507204005 | 45 | 222 | 0.0 | 1.0 | 0.00 | 4.76 | 0.00 | 50 | 1014.8 |
| 20260507203505 | 45 | 223 | 0.0 | 1.0 | 0.00 | 4.88 | 0.00 | 50 | 1014.9 |
| 20260507202506 | 46 | 224 | 0.0 | 0.0 | 0.00 | 5.12 | 0.00 | 49 | 1014.9 |
| 20260507202005 | 46 | 222 | 0.0 | 0.0 | 0.00 | 5.22 | 0.00 | 49 | 1014.8 |
| 20260507201504 | 47 | 223 | 0.0 | 0.0 | 0.00 | 5.34 | 0.00 | 47 | 1014.8 |
| 20260507201005 | 47 | 225 | 0.0 | 0.0 | 0.00 | 5.46 | 0.00 | 47 | 1014.8 |
| 20260507200504 | 48 | 223 | 0.0 | 0.0 | 0.00 | 5.58 | 0.00 | 46 | 1014.7 |
| 20260507200005 | 48 | 224 | 0.0 | 0.0 | 0.00 | 5.70 | 0.00 | 45 | 1014.4 |
| 20260507194504 | 49 | 222 | 0.0 | 0.0 | 0.00 | 6.04 | 0.00 | 43 | 1014.5 |
| 20260507194005 | 50 | 223 | 0.0 | 0.0 | 0.00 | 6.16 | 0.00 | 42 | 1014.3 |
| 20260507193505 | 50 | 224 | 0.0 | 0.0 | 0.00 | 6.28 | 0.00 | 42 | 1014.2 |
| 20260507193005 | 50 | 223 | 0.0 | 0.0 | 0.00 | 6.40 | 0.00 | 42 | 1014.2 |
| 20260507192505 | 51 | 225 | 0.0 | 2.0 | 0.00 | 6.52 | 0.00 | 40 | 1014.0 |
| 20260507192004 | 51 | 223 | 1.0 | 2.0 | 0.00 | 6.64 | 0.00 | 41 | 1013.9 |
| 20260507191505 | 51 | 222 | 0.0 | 2.0 | 0.00 | 6.76 | 0.00 | 39 | 1013.9 |
| 20260507191006 | 52 | 222 | 0.0 | 2.0 | 0.00 | 6.86 | 0.00 | 38 | 1013.8 |
| 20260507190505 | 52 | 214 | 0.0 | 3.0 | 0.00 | 6.98 | 0.00 | 38 | 1013.7 |
| 20260507190005 | 52 | 219 | 1.0 | 3.0 | 0.00 | 7.10 | 0.00 | 38 | 1013.7 |
| 20260507185504 | 53 | 216 | 1.0 | 3.0 | 0.00 | 7.22 | 0.00 | 36 | 1013.6 |
| 20260507185005 | 53 | 205 | 0.0 | 3.0 | 0.00 | 7.34 | 0.00 | 34 | 1013.6 |
| 20260507184504 | 54 | 204 | 1.0 | 3.0 | 0.00 | 7.46 | 0.00 | 34 | 1013.5 |
| 20260507184006 | 54 | 194 | 0.0 | 0.0 | 0.00 | 7.56 | 0.00 | 33 | 1013.4 |
| 20260507183504 | 55 | 194 | 0.0 | 0.0 | 0.00 | 7.68 | 0.00 | 31 | 1013.4 |
| 20260507183006 | 55 | 192 | 0.0 | 0.0 | 0.00 | 7.82 | 0.00 | 30 | 1013.5 |
| 20260507182506 | 55 | 192 | 0.0 | 2.0 | 0.00 | 7.92 | 0.00 | 28 | 1013.4 |
| 20260507182005 | 55 | 193 | 0.0 | 2.0 | 0.00 | 8.04 | 0.00 | 27 | 1013.4 |
| 20260507181005 | 56 | 198 | 0.0 | 3.0 | 0.00 | 8.28 | 0.00 | 27 | 1013.4 |
| 20260507180504 | 56 | 203 | 2.0 | 3.0 | 0.00 | 8.38 | 0.00 | 26 | 1013.4 |
| 20260507180005 | 56 | 205 | 0.0 | 3.0 | 0.00 | 8.50 | 0.00 | 27 | 1013.3 |
| 20260507175504 | 56 | 265 | 1.0 | 3.0 | 0.00 | 8.62 | 0.00 | 26 | 1013.2 |
| 20260507175006 | 56 | 289 | 0.0 | 2.0 | 0.00 | 8.74 | 0.00 | 26 | 1013.2 |
| 20260507174505 | 57 | 283 | 0.0 | 2.0 | 0.00 | 8.86 | 0.00 | 27 | 1013.2 |
| 20260507174005 | 57 | 289 | 0.0 | 3.0 | 0.00 | 8.98 | 0.00 | 27 | 1013.2 |
| 20260507173507 | 57 | 289 | 0.0 | 3.0 | 0.00 | 9.10 | 0.00 | 25 | 1013.2 |